SEKCJA WYDRUKÓW, pokaż »

METAR EPBY 171300Z 26011KT 200V290 CAVOK 26/13 Q1018=

METAR EPGD 171300Z 25013KT CAVOK 23/12 Q1017 =

METAR EPKK 171300Z 31007KT 9999 SCT046 27/19 Q1018 =

METAR EPKT 171300Z 30009KT CAVOK 25/15 Q1020 =

METAR EPLB 171300Z 01006KT 340V040 9999 FEW043 30/17 Q1018 =

METAR EPLL 171300Z 25013KT CAVOK 26/12 Q1019 =

METAR EPML 171300Z AUTO 04004KT 350V140 9999 NCD 29/14 Q1018=

METAR EPMO 171300Z 24010KT 210V270 CAVOK 28/15 Q1018 =

METAR EPPO 171300Z 25010KT CAVOK 26/12 Q1019 =

METAR EPRA 171300Z 26004KT 220V330 9999 SCT047 28/19 Q1018=

METAR EPRZ 171300Z 10008KT 080V140 9999 SCT020CB 25/21 Q1018 RETS =

METAR EPSC 171300Z 25010KT 9999 SCT039 21/13 Q1018 =

METAR EPSY 171300Z 23012KT CAVOK 27/12 Q1017=

METAR EPWA 171300Z VRB05KT CAVOK 28/17 Q1018 NOSIG=

METAR EPWR 171300Z 16009KT 9999 FEW040 24/15 Q1020 =

METAR EPZG 171300Z 23011KT CAVOK 24/13 Q1019 =
 METAR EPKK
Lokalizacja:EPKK Kraków Balice
Czas:13:00 UTC
Średni kierunek wiatru:310 °
Średnia prędkość wiatru:7 węzłów
Widzialność:10 km i więcej
Pierwsza warstwa chmur:3/8 do 4/8, wysokość podstawy 4600 FT
Temperatura powietrza:27 °C
Temperatura punktu rosy:19 °C
Ciśnienie QNH:1018 hPa